YSSYNWWW

Guest
Details From YSSY - Sydney Intl
To NWWW - Noumea La Tontouta
Flight Number -
Tags Generated
Created
Modified
Stats Distance 1,069 nm / 1,980 km
Max Altitude 0 ft / 0 m
Waypoints 3
Social Downloads 3
Likes 0
Share VATSIM

Download

Looking for another format? Having issues loading an existing format? Contact us
Advertisement - Login to hide

Notes

Generated

Route

YSSY SUDOV NWWW

ID Type Via Altitude Latitude Longitude Leg Dist Tot Dist Heading (true) Name
O YSSY APT - 0 ft / 0 m -33.94962˚ 151.18832˚ - 0 nm - -
SUDOV FIX - 0 ft / 0 m -22.20822˚ 165.99922˚ 1052 nm 1052 nm 52° / 45° -
O NWWW APT - 0 ft / 0 m -22.00756˚ 166.20102˚ 16 nm 1069 nm 43° / 43° -

Altitude Profile

Advertisement - Login to hide

Weather


0- 5 10 15 20 25 30 35+ Temperature / ° C

Clouds and Precipitation
Forecast for 2017-12-13 06:00 UTC. Updated 15 minutes ago

Ground ~20,000 ft ~40,000 ft Winds

YSSY

Details ICAO YSSY (SYD)
Name Sydney Intl
Region Australia
Timezone Australia/Sydney (UTC+11.0)
Stats Elevation 21 ft / 6 m (AMSL)
Location -33.949273° 151.181347°
Runways 3
Magnetic Variation 12.599° E

METAR

YSSY 130300Z 05017KT CAVOK 28/18 Q1010 FM0400 05018G28KT CAVOK FM0400 MOD TURB BLW 5000FT

Decode

TAF

TAF YSSY 122309Z 1300/1406 04015KT CAVOK FM130300 04020G30KT CAVOK FM131000 01012KT CAVOK FM140100 04015KT CAVOK

Decode

Departure Runways

ID Width Length Bearing (true) Bearing (mag) Surface Threshold Offset Overrun Length
07 148 ft / 45 m 8,285 ft / 2,525 m 74.13° 61.53° Asphalt 0 ft / 0 m 0 ft / 0 m
16L 148 ft / 45 m 8,018 ft / 2,444 m 167.81° 155.21° Asphalt 758 ft / 231 m 0 ft / 0 m
16R 148 ft / 45 m 13,033 ft / 3,973 m 167.86° 155.26° Asphalt 279 ft / 85 m 0 ft / 0 m
25 148 ft / 45 m 8,285 ft / 2,525 m 254.12° 241.52° Asphalt 324 ft / 99 m 0 ft / 0 m
34L 148 ft / 45 m 13,033 ft / 3,973 m 347.85° 335.25° Asphalt 0 ft / 0 m 0 ft / 0 m
34R 148 ft / 45 m 8,018 ft / 2,444 m 347.81° 335.21° Asphalt 125 ft / 38 m 0 ft / 0 m

NWWW

Details ICAO NWWW (NOU)
Name Noumea La Tontouta
Region New Caledonia
Timezone Pacific/Noumea (UTC+11.0)
Stats Elevation 51 ft / 16 m (AMSL)
Location -22.014529° 166.213022°
Runways 1
Magnetic Variation 12.334° E

METAR

NWWW 130330Z AUTO 14012KT 9999 OVC041/// ///CB 28/23 Q1007 TEMPO 3000 SHRA BKN014 SCT020TCU

Decode

TAF

TAF NWWW 121700Z 1218/1318 VRB02KT 9999 FEW025 SCT050 BKN065 BECMG 1222/1224 22008KT PROB40 TEMPO 1222/1309 VRB10G20KT 4000 SHRA SCT020CB

Decode

Destination Runways

ID Width Length Bearing (true) Bearing (mag) Surface Threshold Offset Overrun Length
11 148 ft / 45 m 10,666 ft / 3,251 m 121.21° 108.88° Asphalt 0 ft / 0 m 338 ft / 103 m
29 148 ft / 45 m 10,666 ft / 3,251 m 301.19° 288.86° Asphalt 0 ft / 0 m 354 ft / 108 m

Approach Navaids

Runway Type Ident Frequency Range Bearing (true) Bearing (mag) Slope Elevation
11 Localiser LT 109.90 MHz 18 nm / 33 km 120.69° 108.35° - 52 ft / 16 m (AMSL)
11 Glidescope LT 109.90 MHz 10 nm / 19 km 121.20° 108.87° 3.00° 24 ft / 7 m (AMSL)

Popular Alternatives